Hlavní strana
METAR-TAF:

METAR-TAF

Letiště :

Erwin, Severní Karolína, Spojené státy americké

zeměpisná šířka: 35-22-43N, zeměpisná délka: 078-44-01W, výška: 60 m

Aktuální stav počasí

Zpráva byla vytvořena před 29 minutami, v 23:15 UTC
Jihozápadní vítr 7 kt
Teplota 13°C
Vlhkost vzduchu 77%
Tlak 1002 hPa
Viditelnost: 16.1 km
Polojasno ve výšce 4900 ft

METAR: KHRJ 302315Z AUTO 22007KT 10SM SCT049 13/09 A2960 RMK AO2 T01320085

Čas: 18:44 (23:44 UTC)


TAF: chybějící

Stav a předpovědi počasí z více než 4 000 letišť (zprávy METAR a TAF).

Červené a žluté tečky na mapě představují dostupné meteorologické stanice.

Když kurzor umístíte na tečku, zobrazí se název stanice.

Pak kliknutím zobrazíte stav a předpověď počasí.

Chcete-li změnit mapu, kliknutím na zelené tlačítko se znaménkem +mapu přiblížíte, kliknutím na zelené tlačítko se znaménkem – mapu oddálíte a kliknutím na zelené šipky přejdete na sousední mapy.


METAR-TAF: